createdAt,value
2022-10-13T00:02:30.452Z,8.75
2022-10-13T00:05:18.951Z,8.74
2022-10-13T00:08:02.575Z,9.06
2022-10-13T00:10:33.815Z,9.03
2022-10-13T00:13:04.220Z,8.95
2022-10-13T00:15:48.316Z,8.93
2022-10-13T00:18:38.501Z,8.90
2022-10-13T00:21:23.596Z,8.77
2022-10-13T00:24:00.395Z,8.65
2022-10-13T00:26:53.436Z,8.79
2022-10-13T00:30:48.366Z,8.68
2022-10-13T00:33:15.157Z,8.61
2022-10-13T00:35:54.362Z,8.72
2022-10-13T00:38:28.280Z,8.68
2022-10-13T00:41:08.402Z,8.59
2022-10-13T00:44:29.483Z,8.56
2022-10-13T00:47:16.262Z,8.63
2022-10-13T00:49:45.416Z,8.53
2022-10-13T00:52:43.480Z,8.36
2022-10-13T00:56:21.410Z,8.41
2022-10-13T01:02:22.275Z,8.05
2022-10-13T01:05:08.349Z,8.10
2022-10-13T01:07:48.483Z,7.98
2022-10-13T01:10:40.511Z,7.87
2022-10-13T01:13:51.481Z,7.65
2022-10-13T01:16:41.496Z,7.58
2022-10-13T01:19:32.815Z,7.58
2022-10-13T01:22:32.637Z,7.53
2022-10-13T01:25:10.006Z,7.53
2022-10-13T01:28:24.413Z,7.55
2022-10-13T01:31:24.623Z,7.55
2022-10-13T01:34:35.919Z,7.51
2022-10-13T01:37:50.486Z,7.68
2022-10-13T01:40:49.185Z,7.60
2022-10-13T01:46:41.169Z,7.40
2022-10-13T01:49:34.396Z,7.36
2022-10-13T01:52:16.238Z,7.34
2022-10-13T01:54:58.175Z,7.44
2022-10-13T01:57:45.621Z,7.61
2022-10-13T02:00:34.016Z,7.45
2022-10-13T02:03:16.823Z,7.46
2022-10-13T02:06:07.605Z,7.47
2022-10-13T02:09:27.480Z,7.34
2022-10-13T02:12:16.755Z,7.20
2022-10-13T02:14:53.999Z,7.27
2022-10-13T02:17:49.409Z,7.19
2022-10-13T02:23:12.091Z,7.74
2022-10-13T02:25:39.982Z,7.61
2022-10-13T02:28:21.832Z,7.64
2022-10-13T02:31:02.075Z,7.49
2022-10-13T02:36:42.426Z,7.33
2022-10-13T02:43:04.990Z,7.35
2022-10-13T02:45:40.622Z,7.51
2022-10-13T02:48:13.376Z,7.50
2022-10-13T02:51:42.926Z,7.56
2022-10-13T02:54:07.328Z,7.62
2022-10-13T02:57:11.011Z,7.58
2022-10-13T02:59:59.009Z,7.74
2022-10-13T03:02:33.006Z,7.69
2022-10-13T03:05:18.267Z,7.79
2022-10-13T03:08:06.166Z,7.88
2022-10-13T03:11:11.804Z,7.94
2022-10-13T03:14:13.228Z,8.03
2022-10-13T03:17:13.551Z,8.01
2022-10-13T03:19:57.209Z,8.07
2022-10-13T03:23:04.914Z,8.11
2022-10-13T03:26:02.124Z,8.13
2022-10-13T03:28:28.999Z,8.09
2022-10-13T03:31:34.970Z,8.00
2022-10-13T03:34:55.384Z,8.01
2022-10-13T03:37:22.930Z,7.93
2022-10-13T03:40:10.903Z,8.17
2022-10-13T03:43:29.700Z,8.11
2022-10-13T03:47:16.779Z,8.08
2022-10-13T03:50:41.395Z,8.10
2022-10-13T03:53:28.848Z,8.10
2022-10-13T03:59:25.205Z,8.16
2022-10-13T04:02:05.292Z,8.12
2022-10-13T04:04:53.431Z,8.05
2022-10-13T04:07:26.820Z,8.06
2022-10-13T04:10:11.482Z,8.05
2022-10-13T04:16:01.856Z,7.91
2022-10-13T04:18:43.689Z,7.95
2022-10-13T04:21:59.785Z,7.90
2022-10-13T04:27:41.961Z,8.05
2022-10-13T04:30:11.512Z,8.15
2022-10-13T04:32:41.369Z,8.13
2022-10-13T04:35:09.065Z,8.12
2022-10-13T04:37:35.882Z,8.23
2022-10-13T04:40:03.081Z,8.22
2022-10-13T04:42:31.290Z,8.17
2022-10-13T04:44:57.910Z,8.21
2022-10-13T04:47:27.229Z,8.38
2022-10-13T04:50:05.590Z,8.42
2022-10-13T04:52:32.540Z,8.49
2022-10-13T04:57:40.103Z,8.46
2022-10-13T05:00:07.741Z,8.58
2022-10-13T05:02:50.536Z,8.63
2022-10-13T05:05:20.253Z,8.69
2022-10-13T05:08:26.507Z,8.68
2022-10-13T05:11:07.671Z,8.60
2022-10-13T05:13:55.833Z,8.65
2022-10-13T05:16:25.963Z,8.59
2022-10-13T05:19:10.599Z,8.64
2022-10-13T05:22:12.274Z,8.83
2022-10-13T05:28:08.479Z,8.86
2022-10-13T05:30:45.631Z,8.75
2022-10-13T05:33:20.130Z,8.77
2022-10-13T05:35:51.270Z,8.75
2022-10-13T05:38:26.758Z,8.75
2022-10-13T05:41:01.028Z,8.78
2022-10-13T05:44:25.529Z,8.71
2022-10-13T05:46:42.889Z,8.87
2022-10-13T05:49:17.362Z,8.87
2022-10-13T05:52:09.040Z,9.02
2022-10-13T05:54:42.293Z,8.99
2022-10-13T05:57:41.444Z,8.89
2022-10-13T06:00:14.226Z,8.89
2022-10-13T06:03:02.370Z,8.90
2022-10-13T06:05:39.012Z,8.88
2022-10-13T06:08:09.870Z,8.90
2022-10-13T06:10:42.755Z,8.93
2022-10-13T06:13:09.998Z,8.93
2022-10-13T06:15:36.717Z,9.02
2022-10-13T06:18:12.822Z,9.04
2022-10-13T06:20:42.870Z,9.07
2022-10-13T06:23:23.448Z,9.16
2022-10-13T06:26:04.919Z,9.32
2022-10-13T06:28:59.126Z,9.30
2022-10-13T06:31:36.203Z,9.31
2022-10-13T06:34:06.985Z,9.36
2022-10-13T06:36:38.933Z,9.47
2022-10-13T06:39:15.507Z,9.50
2022-10-13T06:41:50.650Z,9.52
2022-10-13T06:44:18.507Z,9.51
2022-10-13T06:49:51.013Z,9.60
2022-10-13T07:04:48.307Z,10.03
2022-10-13T07:07:18.089Z,10.02
2022-10-13T07:09:53.634Z,10.09
2022-10-13T07:12:23.244Z,10.09
2022-10-13T07:14:55.530Z,10.17
2022-10-13T07:17:25.064Z,10.26
2022-10-13T07:23:07.817Z,10.20
2022-10-13T07:25:37.876Z,10.13
2022-10-13T07:29:12.282Z,10.34
2022-10-13T07:35:54.294Z,10.50
2022-10-13T07:38:20.843Z,10.46
2022-10-13T07:40:48.509Z,10.56
2022-10-13T07:43:42.759Z,10.60
2022-10-13T07:46:11.347Z,10.58
2022-10-13T07:48:38.023Z,10.61
2022-10-13T07:51:32.662Z,10.65
2022-10-13T07:54:25.165Z,10.72
2022-10-13T07:57:19.747Z,10.71
2022-10-13T07:59:46.353Z,10.62
2022-10-13T08:15:29.837Z,10.85
2022-10-13T08:23:13.039Z,11.35
2022-10-13T08:29:59.888Z,11.82
2022-10-13T08:36:26.242Z,12.07
2022-10-13T08:39:02.583Z,12.30
2022-10-13T08:49:47.787Z,12.90
2022-10-13T08:53:05.541Z,12.98
2022-10-13T08:55:43.208Z,13.38
2022-10-13T08:58:27.087Z,13.18
2022-10-13T09:08:48.969Z,13.33
2022-10-13T09:27:26.318Z,13.00
2022-10-13T09:31:02.798Z,12.84
2022-10-13T09:36:32.699Z,12.84
2022-10-13T09:39:11.237Z,12.86
2022-10-13T09:41:46.285Z,12.96
2022-10-13T09:44:25.594Z,13.28
2022-10-13T09:47:47.631Z,13.30
2022-10-13T09:51:08.168Z,13.52
2022-10-13T09:56:12.909Z,13.44
2022-10-13T09:57:48.231Z,13.49
2022-10-13T10:01:00.431Z,13.39
2022-10-13T10:06:51.796Z,13.35
2022-10-13T10:10:39.370Z,13.52
2022-10-13T10:13:19.591Z,13.62
2022-10-13T10:19:37.525Z,13.84
2022-10-13T10:30:21.468Z,13.76
2022-10-13T10:47:11.428Z,14.34
2022-10-13T10:57:26.683Z,14.66
2022-10-13T11:00:53.260Z,14.77
2022-10-13T11:03:57.367Z,15.33
2022-10-13T11:07:00.540Z,14.79
2022-10-13T11:09:45.569Z,14.85
2022-10-13T11:12:56.830Z,15.10
2022-10-13T11:15:41.345Z,15.23
2022-10-13T11:19:05.422Z,15.40
2022-10-13T11:22:25.852Z,15.09
2022-10-13T11:25:09.287Z,15.49
2022-10-13T11:27:35.920Z,15.44
2022-10-13T11:30:18.264Z,15.02
2022-10-13T11:33:02.691Z,15.09
2022-10-13T11:35:38.503Z,15.06
2022-10-13T11:38:28.163Z,15.18
2022-10-13T11:40:54.852Z,15.19
2022-10-13T11:43:34.306Z,15.09
2022-10-13T11:46:07.049Z,15.45
2022-10-13T11:49:02.907Z,15.71
2022-10-13T11:51:41.586Z,15.32
2022-10-13T11:54:29.738Z,15.13
2022-10-13T11:57:14.292Z,15.65
2022-10-13T12:00:05.578Z,15.70
2022-10-13T12:02:50.874Z,15.40
2022-10-13T12:05:24.373Z,15.60
2022-10-13T12:07:52.856Z,15.94
2022-10-13T12:10:39.340Z,16.07
2022-10-13T12:13:23.308Z,16.15
2022-10-13T12:16:06.319Z,16.24
2022-10-13T12:21:27.057Z,15.62
2022-10-13T12:24:15.305Z,15.70
2022-10-13T12:26:45.345Z,15.94
2022-10-13T12:29:24.950Z,15.71
2022-10-13T12:31:58.743Z,15.96
2022-10-13T12:34:33.259Z,16.34
2022-10-13T12:37:24.535Z,16.09
2022-10-13T12:39:58.856Z,16.42
2022-10-13T12:42:41.330Z,16.13
2022-10-13T12:45:44.487Z,16.39
2022-10-13T12:48:37.627Z,16.63
2022-10-13T12:51:37.502Z,16.50
2022-10-13T12:54:22.598Z,16.63
2022-10-13T12:56:59.620Z,16.26
2022-10-13T12:59:28.129Z,16.37
2022-10-13T13:01:58.004Z,16.61
2022-10-13T13:04:31.205Z,16.41
2022-10-13T13:07:01.145Z,16.68
2022-10-13T13:09:35.569Z,16.45
2022-10-13T13:12:23.218Z,16.56
2022-10-13T13:14:53.227Z,15.96
2022-10-13T13:20:37.862Z,16.16
2022-10-13T13:23:05.590Z,16.24
2022-10-13T13:25:33.747Z,16.06
2022-10-13T13:28:10.948Z,16.01
2022-10-13T13:30:37.517Z,16.33
2022-10-13T13:33:13.230Z,16.01
2022-10-13T13:35:39.872Z,15.91
2022-10-13T13:38:08.447Z,15.99
2022-10-13T13:40:42.874Z,16.01
2022-10-13T13:43:12.301Z,15.76
2022-10-13T13:45:53.346Z,15.79
2022-10-13T13:48:20.053Z,15.77
2022-10-13T13:51:00.666Z,15.97
2022-10-13T13:53:27.569Z,15.66
2022-10-13T13:55:54.496Z,15.64
2022-10-13T13:58:28.755Z,15.53
2022-10-13T14:01:11.736Z,15.52
2022-10-13T14:03:38.768Z,15.42
2022-10-13T14:06:07.833Z,15.39
2022-10-13T14:08:43.417Z,15.41
2022-10-13T14:11:10.296Z,15.50
2022-10-13T14:13:37.123Z,15.48
2022-10-13T14:16:04.475Z,15.63
2022-10-13T14:18:33.444Z,15.64
2022-10-13T14:21:07.380Z,15.71
2022-10-13T14:23:56.100Z,15.64
2022-10-13T14:26:31.934Z,16.10
2022-10-13T14:29:03.929Z,15.80
2022-10-13T14:31:30.836Z,15.82
2022-10-13T14:34:03.593Z,15.71
2022-10-13T14:36:32.613Z,15.76
2022-10-13T14:38:59.314Z,15.56
2022-10-13T14:41:31.500Z,15.42
2022-10-13T14:43:58.204Z,15.40
2022-10-13T14:46:28.228Z,15.42
2022-10-13T14:49:04.150Z,15.58
2022-10-13T14:51:36.372Z,15.45
2022-10-13T14:54:04.441Z,15.46
2022-10-13T14:56:34.504Z,15.24
2022-10-13T14:59:06.006Z,15.05
2022-10-13T15:02:02.816Z,14.98
2022-10-13T15:07:20.351Z,14.77
2022-10-13T15:09:53.055Z,14.64
2022-10-13T15:12:28.159Z,14.54
2022-10-13T15:15:01.282Z,14.42
2022-10-13T15:17:29.465Z,14.31
2022-10-13T15:19:56.357Z,14.23
2022-10-13T15:22:23.395Z,14.09
2022-10-13T15:24:50.270Z,14.07
2022-10-13T15:27:17.101Z,13.93
2022-10-13T15:29:43.709Z,13.80
2022-10-13T15:32:17.657Z,13.67
2022-10-13T15:34:49.573Z,13.69
2022-10-13T15:37:16.182Z,13.59
2022-10-13T15:39:42.887Z,13.51
2022-10-13T15:42:10.769Z,13.45
2022-10-13T15:45:04.677Z,13.45
2022-10-13T15:47:24.142Z,13.49
2022-10-13T15:49:50.677Z,13.49
2022-10-13T15:52:17.316Z,13.45
2022-10-13T15:54:44.043Z,13.39
2022-10-13T15:57:12.132Z,13.39
2022-10-13T15:59:38.814Z,13.53
2022-10-13T16:02:12.752Z,13.51
2022-10-13T16:04:39.354Z,13.43
2022-10-13T16:07:06.049Z,13.39
2022-10-13T16:09:32.610Z,13.29
2022-10-13T16:11:59.233Z,13.22
2022-10-13T16:14:25.787Z,13.40
2022-10-13T16:16:52.447Z,13.34
2022-10-13T16:19:19.019Z,13.31
2022-10-13T16:21:46.844Z,13.48
2022-10-13T16:24:14.494Z,13.38
2022-10-13T16:26:46.215Z,13.35
2022-10-13T16:29:12.820Z,13.36
2022-10-13T16:31:39.402Z,13.48
2022-10-13T16:34:07.029Z,13.48
2022-10-13T16:36:33.639Z,13.41
2022-10-13T16:39:02.571Z,13.36
2022-10-13T16:41:29.117Z,13.17
2022-10-13T16:43:55.773Z,13.05
2022-10-13T16:46:24.845Z,12.97
2022-10-13T16:48:56.699Z,12.85
2022-10-13T16:51:27.270Z,12.75
2022-10-13T16:53:58.717Z,12.66
2022-10-13T16:56:29.906Z,12.58
2022-10-13T16:58:59.703Z,12.47
2022-10-13T17:01:26.869Z,12.37
2022-10-13T17:03:53.637Z,12.32
2022-10-13T17:06:22.521Z,12.29
2022-10-13T17:08:54.668Z,12.22
2022-10-13T17:11:23.706Z,12.19
2022-10-13T17:13:52.208Z,12.20
2022-10-13T17:16:19.464Z,12.13
2022-10-13T17:18:46.477Z,12.10
2022-10-13T17:21:15.104Z,12.05
2022-10-13T17:23:47.388Z,12.12
2022-10-13T17:26:16.650Z,12.06
2022-10-13T17:28:43.298Z,12.16
2022-10-13T17:31:16.473Z,12.10
2022-10-13T17:33:43.842Z,12.13
2022-10-13T17:36:17.947Z,12.12
2022-10-13T17:38:45.458Z,12.09
2022-10-13T17:41:16.134Z,12.03
2022-10-13T17:43:50.121Z,11.99
2022-10-13T17:46:36.103Z,12.04
2022-10-13T17:49:04.290Z,11.99
2022-10-13T17:51:30.839Z,11.93
2022-10-13T17:53:58.834Z,11.89
2022-10-13T17:56:25.662Z,11.88
2022-10-13T17:58:52.811Z,11.85
2022-10-13T18:01:25.444Z,11.89
2022-10-13T18:03:57.385Z,11.92
2022-10-13T18:06:37.704Z,11.90
2022-10-13T18:09:12.719Z,11.90
2022-10-13T18:11:41.774Z,11.87
2022-10-13T18:14:10.004Z,11.87
2022-10-13T18:16:46.443Z,11.99
2022-10-13T18:19:13.433Z,11.90
2022-10-13T18:21:40.263Z,11.86
2022-10-13T18:24:07.248Z,11.87
2022-10-13T18:26:36.726Z,11.78
2022-10-13T18:29:04.956Z,11.73
2022-10-13T18:31:34.694Z,11.77
2022-10-13T18:34:03.678Z,11.74
2022-10-13T18:36:35.708Z,11.69
2022-10-13T18:39:14.599Z,11.68
2022-10-13T18:41:44.865Z,11.65
2022-10-13T18:44:11.722Z,11.66
2022-10-13T18:46:39.213Z,11.69
2022-10-13T18:49:07.241Z,11.80
2022-10-13T18:51:36.462Z,11.78
2022-10-13T18:54:03.924Z,11.71
2022-10-13T18:56:31.792Z,11.80
2022-10-13T18:59:01.041Z,11.72
2022-10-13T19:01:30.411Z,11.77
2022-10-13T19:03:57.245Z,11.85
2022-10-13T19:06:26.921Z,11.71
2022-10-13T19:08:58.608Z,11.65
2022-10-13T19:11:25.359Z,11.58
2022-10-13T19:13:56.471Z,11.52
2022-10-13T19:16:29.709Z,11.49
2022-10-13T19:18:58.864Z,11.45
2022-10-13T19:21:25.872Z,11.41
2022-10-13T19:23:58.672Z,11.40
2022-10-13T19:26:28.832Z,11.37
2022-10-13T19:29:13.995Z,11.41
2022-10-13T19:31:41.517Z,11.33
2022-10-13T19:34:09.165Z,11.36
2022-10-13T19:36:39.035Z,11.38
2022-10-13T19:39:11.673Z,11.41
2022-10-13T19:41:39.183Z,11.34
2022-10-13T19:44:06.013Z,11.32
2022-10-13T19:46:40.006Z,11.54
2022-10-13T19:49:06.944Z,11.44
2022-10-13T19:51:35.118Z,11.41
2022-10-13T19:54:02.152Z,11.37
2022-10-13T19:56:31.602Z,11.36
2022-10-13T19:58:58.770Z,11.32
2022-10-13T20:01:25.330Z,11.31
2022-10-13T20:03:52.071Z,11.31
2022-10-13T20:06:26.602Z,11.30
2022-10-13T20:09:00.437Z,11.30
2022-10-13T20:11:36.475Z,11.31
2022-10-13T20:14:03.648Z,11.28
2022-10-13T20:16:30.486Z,11.25
2022-10-13T20:18:58.656Z,11.22
2022-10-13T20:21:26.497Z,11.24
2022-10-13T20:24:03.835Z,11.24
2022-10-13T20:26:36.113Z,11.28
2022-10-13T20:29:03.110Z,11.20
2022-10-13T20:31:32.579Z,11.23
2022-10-13T20:34:13.386Z,11.19
2022-10-13T20:36:55.813Z,11.18
2022-10-13T20:39:22.443Z,11.21
2022-10-13T20:41:49.122Z,11.22
2022-10-13T20:44:17.099Z,11.36
2022-10-13T20:46:43.913Z,11.36
2022-10-13T20:49:12.272Z,11.47
2022-10-13T20:51:39.935Z,11.59
2022-10-13T20:54:06.839Z,11.57
2022-10-13T20:56:43.386Z,11.51
2022-10-13T20:59:12.421Z,11.48
2022-10-13T21:01:39.063Z,11.64
2022-10-13T21:04:11.446Z,11.61
2022-10-13T21:06:38.553Z,11.58
2022-10-13T21:09:08.095Z,11.64
2022-10-13T21:11:42.735Z,11.56
2022-10-13T21:14:10.421Z,11.52
2022-10-13T21:16:37.735Z,11.46
2022-10-13T21:19:14.013Z,11.49
2022-10-13T21:21:44.032Z,11.48
2022-10-13T21:24:13.891Z,11.50
2022-10-13T21:26:45.597Z,11.50
2022-10-13T21:29:24.578Z,11.58
2022-10-13T21:31:51.268Z,11.53
2022-10-13T21:34:17.842Z,11.60
2022-10-13T21:36:45.433Z,11.91
2022-10-13T21:39:16.054Z,11.73
2022-10-13T21:41:51.677Z,11.60
2022-10-13T21:44:18.227Z,11.61
2022-10-13T21:46:44.920Z,11.66
2022-10-13T21:49:17.590Z,11.65
2022-10-13T21:51:44.326Z,11.59
2022-10-13T21:54:12.201Z,11.60
2022-10-13T21:56:42.069Z,11.58
2022-10-13T21:59:23.106Z,11.59
2022-10-13T22:01:51.772Z,11.58
2022-10-13T22:04:21.562Z,11.53
2022-10-13T22:06:51.006Z,11.63
2022-10-13T22:09:24.933Z,11.58
2022-10-13T22:11:58.468Z,11.56
2022-10-13T22:14:35.140Z,11.56
2022-10-13T22:17:04.866Z,11.53
2022-10-13T22:19:33.911Z,11.52
2022-10-13T22:22:18.302Z,11.59
2022-10-13T22:24:52.424Z,11.56
2022-10-13T22:27:24.375Z,11.48
2022-10-13T22:29:55.761Z,11.49
2022-10-13T22:32:22.351Z,11.49
2022-10-13T22:34:49.071Z,11.46
2022-10-13T22:37:15.895Z,11.46
2022-10-13T22:39:42.573Z,11.43
2022-10-13T22:42:15.107Z,11.47
2022-10-13T22:44:52.147Z,11.43
2022-10-13T22:47:22.209Z,11.46
2022-10-13T22:49:53.767Z,11.50
2022-10-13T22:52:29.142Z,11.47
2022-10-13T22:54:55.800Z,11.47
2022-10-13T22:57:39.921Z,11.45
2022-10-13T23:00:10.686Z,11.55
2022-10-13T23:02:53.505Z,11.51
2022-10-13T23:05:28.917Z,11.56
2022-10-13T23:08:03.096Z,11.50
2022-10-13T23:10:37.546Z,11.56
2022-10-13T23:13:23.860Z,11.52
2022-10-13T23:16:12.521Z,11.49
2022-10-13T23:18:51.312Z,11.58
2022-10-13T23:21:43.789Z,11.56
2022-10-13T23:24:19.521Z,11.54
2022-10-13T23:27:01.105Z,11.56
2022-10-13T23:29:35.250Z,11.57
2022-10-13T23:32:10.047Z,11.72
2022-10-13T23:34:49.495Z,11.69
2022-10-13T23:37:23.252Z,11.61
2022-10-13T23:39:57.186Z,11.55
2022-10-13T23:42:46.692Z,11.56
2022-10-13T23:45:15.805Z,11.60
2022-10-13T23:47:45.524Z,11.56
2022-10-13T23:50:17.782Z,11.54
2022-10-13T23:53:08.604Z,11.55
2022-10-13T23:55:46.734Z,11.54
2022-10-13T23:58:16.117Z,11.51
